Latest Coastal Weather Observations for Hobart Airport

IDT60701

Issued at 6:52 pm EST Saturday 25 May 2019 (issued every 10 minutes, with the page automatically refreshed every 10 minutes)

About coastal observations | Map of coastal stations | Coastal observations for TAS | Marine services | Other Formats
Station Details ID: 094008 Name: HOBART AIRPORT Lat: -42.83 Lon: 147.50 Height: 4.0 m
Data from the previous 72 hours. | See also: Recent months at Hobart Airport
Date/Time
EST
Wind Sea
Height
m
Swell Vis
km
Cloud Weather Temp
°C
Press
hPa
Rain since
9am
mm
Dir  Spd
kts
Gust
kts
Height
m
Period
s
Dir
25/06:30pm NNW 10 16 - - - - 10 Mostly clear - 12.7 1002.6 0.0
25/06:00pm NNW 7 13 - - - - 40 Mostly clear Fine 11.9 1002.3 0.0
25/05:30pm NNW 7 10 - - - - 10 Mostly clear - 13.6 1002.6 0.0
25/05:00pm NNW 9 16 - - - - 10 Mostly clear - 14.1 1002.3 0.0
25/04:30pm NNW 11 18 - - - - 10 Cloudy - 14.6 1002.1 0.0
25/04:00pm NW 14 21 - - - - 10 Partly cloudy - 15.2 1001.9 0.0
25/03:30pm NW 11 20 - - - - 10 Mostly clear - 15.3 1001.9 0.0
25/03:00pm NW 15 21 - - - - 40 Mostly cloudy Fine 15.3 1002.2 0.0
25/02:42pm NW 19 29 - - - - 10 - - 15.7 1002.2 0.0
25/02:30pm NW 19 26 - - - - 10 Mostly clear - 15.8 1002.1 0.0
25/02:00pm NW 18 23 - - - - 10 Mostly clear - 15.5 1002.5 0.0
25/01:32pm NW 19 29 - - - - 10 Mostly clear - 16.1 1002.5 0.0
25/01:30pm NW 19 27 - - - - 10 Mostly clear - 15.9 1002.4 0.0
25/01:00pm NW 18 27 - - - - 10 Partly cloudy - 16.1 1002.6 0.0
25/12:32pm NW 21 32 - - - - 10 Mostly clear - 16.3 1002.7 0.0
25/12:30pm NW 21 29 - - - - 10 Mostly clear - 16.4 1002.7 0.0
25/12:13pm NW 21 30 - - - - 10 Mostly clear - 16.5 1002.7 0.0
25/12:00pm NW 15 19 - - - - 40 Mostly cloudy Fine 16.1 1003.1 0.0
25/11:33am NW 17 27 - - - - 10 Mostly clear - 15.9 1003.6 0.0
25/11:30am NW 19 27 - - - - 10 Mostly clear - 15.7 1003.7 0.0
25/11:19am NW 17 27 - - - - 10 Mostly clear - 15.8 1003.7 0.0
25/11:00am NW 17 25 - - - - 10 Mostly clear - 15.2 1004.1 0.0
25/10:50am NW 17 28 - - - - 10 Mostly clear - 15.5 1004.2 0.0
25/10:30am NW 19 26 - - - - 10 Mostly clear - 15.3 1004.3 0.0
25/10:00am NNW 12 18 - - - - 10 Mostly clear - 15.7 1004.1 0.0
25/09:30am NNW 10 14 - - - - 10 Mostly clear - 15.3 1004.3 0.0
25/09:00am NW 16 20 - - - - 40 Mostly clear Fine 15.4 1004.4 0.0
25/08:30am N 11 15 - - - - 10 Mostly clear - 13.9 1004.2 0.0
25/08:00am NNW 10 15 - - - - 10 Mostly clear - 12.9 1003.9 0.0
25/07:30am N 8 10 - - - - 10 Mostly clear - 11.0 1003.8 0.0
25/07:00am N 8 14 - - - - 10 Mostly clear - 11.5 1003.8 0.0
25/06:30am N 7 10 - - - - 10 Mostly clear - 12.6 1003.9 0.0
25/06:00am N 5 7 - - - - 40 Mostly cloudy Fine 11.3 1004.0 0.0
25/05:30am NW 6 7 - - - - 10 Mostly clear - 12.0 1004.1 0.0
25/05:00am N 5 8 - - - - 10 Mostly clear - 12.6 1004.3 0.0
25/04:30am NNW 5 7 - - - - 10 Mostly clear - 12.2 1004.4 0.0
25/04:00am NNW 7 9 - - - - 10 Mostly clear - 13.2 1004.5 0.0
25/03:30am NNW 8 10 - - - - 10 Mostly clear - 13.4 1004.7 0.0
25/03:00am NNW 11 15 - - - - 40 Partly cloudy Fine 13.6 1004.7 0.0
25/02:30am NNW 12 17 - - - - 10 Mostly clear - 13.6 1005.0 0.0
25/02:00am NW 12 16 - - - - 10 Mostly clear - 14.1 1004.9 0.0
25/01:30am NW 13 17 - - - - 10 Mostly clear - 14.2 1004.9 0.0
25/01:00am NW 9 13 - - - - 10 Mostly clear - 12.7 1004.6 0.0
25/12:30am NW 7 8 - - - - 10 Mostly clear - 11.4 1004.8 0.0
25/12:00am WNW 5 7 - - - - 40 Partly cloudy Fine 10.2 1004.8 0.0
 
Date/Time
EST
Wind Sea
Height
m
Swell Vis
km
Cloud Weather Temp
°C
Press
hPa
Rain since
9am
mm
Dir  Spd
kts
Gust
kts
Height
m
Period
s
Dir
24/11:30pm W 5 6 - - - - 10 Mostly clear - 10.6 1004.6 0.0
24/11:00pm SSE 3 4 - - - - 10 Mostly clear - 10.7 1004.4 0.0
24/10:30pm W 2 8 - - - - 10 Mostly clear - 11.8 1004.4 0.0
24/10:00pm NW 9 12 - - - - 10 Mostly clear - 14.1 1004.7 0.0
24/09:30pm NW 8 10 - - - - 10 Mostly clear - 13.7 1004.5 0.0
24/09:00pm NW 7 9 - - - - 30 Mostly cloudy Fine 13.3 1004.6 0.0
24/08:30pm N 11 16 - - - - 10 Mostly clear - 14.3 1004.5 0.0
24/08:00pm N 11 16 - - - - 10 Mostly clear - 14.2 1005.1 0.0
24/07:30pm N 9 13 - - - - 10 Mostly clear - 13.5 1005.3 0.0
24/07:00pm NNW 9 15 - - - - 10 Mostly clear - 13.6 1005.9 0.0
24/06:30pm N 10 14 - - - - 10 Mostly clear - 13.5 1006.3 0.0
24/06:00pm N 11 17 - - - - 25 Mostly cloudy Recent precip. 13.8 1006.5 0.0
24/05:30pm NNW 11 19 - - - - 10 Mostly clear Rain 13.9 1006.9 0.0
24/05:00pm N 12 16 - - - - 10 Mostly clear - 14.4 1007.4 0.0
24/04:30pm NNW 9 14 - - - - 10 Mostly clear Rain 15.1 1007.8 0.0
24/04:00pm N 9 14 - - - - 10 Mostly clear - 15.2 1007.9 0.0
24/03:30pm N 8 13 - - - - 10 Mostly clear - 15.5 1008.2 0.0
24/03:00pm N 11 15 - - - - 30 Mostly cloudy Recent precip. 15.1 1008.6 0.0
24/02:30pm N 11 16 - - - - 10 Mostly clear Rain 15.8 1009.0 0.0
24/02:00pm N 10 14 - - - - 10 Mostly clear - 16.4 1009.4 0.0
24/01:30pm N 9 13 - - - - 10 Mostly clear - 16.8 1009.6 0.0
24/01:00pm N 7 10 - - - - 10 Mostly clear - 17.1 1010.0 0.0
24/12:30pm N 9 13 - - - - 10 Mostly clear - 17.4 1010.7 0.0
24/12:00pm NNW 5 8 - - - - 35 Mostly cloudy Fine 18.3 1011.4 0.0
24/11:30am NNW 4 7 - - - - 10 Mostly clear - 16.4 1011.9 0.0
24/11:00am NE 3 4 - - - - 10 Partly cloudy - 15.7 1012.5 0.0
24/10:30am ENE 4 5 - - - - 10 Mostly clear - 15.7 1012.8 0.0
24/10:00am WNW 4 5 - - - - 10 Mostly clear - 13.8 1013.3 0.0
24/09:30am NW 5 6 - - - - 10 Mostly clear - 12.3 1013.2 0.0
24/09:00am NW 8 9 - - - - 35 Mostly cloudy Fine 11.2 1013.4 0.0
24/08:30am NW 8 9 - - - - 10 Mostly clear - 9.4 1013.5 0.0
24/08:00am NW 5 7 - - - - 10 Mostly clear - 7.7 1013.4 0.0
24/07:30am NNW 5 7 - - - - 10 Mostly clear - 7.8 1013.6 0.0
24/07:00am N 3 4 - - - - 10 Mostly clear - 7.4 1013.4 0.0
24/06:30am NW 3 5 - - - - 10 Mostly clear - 7.4 1013.5 0.0
24/06:00am NNW 2 4 - - - - 40 Mostly clear Fine 7.9 1013.5 0.0
24/05:30am NNW 3 4 - - - - 10 Mostly clear - 7.4 1013.6 0.0
24/05:00am NW 5 6 - - - - 10 Mostly clear - 7.3 1013.6 0.0
24/04:30am WNW 4 5 - - - - 10 Mostly clear - 7.0 1013.7 0.0
24/04:00am WNW 6 7 - - - - 10 Mostly clear - 9.9 1013.5 0.0
24/03:30am WNW 6 7 - - - - 10 Mostly clear - 10.3 1013.7 0.0
24/03:00am NW 7 8 - - - - 40 Mostly cloudy Fine 11.3 1013.9 0.0
24/02:30am NNW 7 9 - - - - 10 Mostly clear - 8.9 1014.0 0.0
24/02:00am NW 6 7 - - - - 10 - - 9.9 1014.2 0.0
24/01:30am NW 1 4 - - - - 10 Mostly clear - 10.4 1014.5 0.0
24/01:00am NW 6 7 - - - - 10 Mostly clear - 10.7 1014.8 0.0
24/12:30am NNW 7 9 - - - - 10 Mostly clear - 11.0 1015.0 0.0
24/12:00am NNW 7 9 - - - - 40 Mostly cloudy Fine 11.2 1015.3 0.0
 
Date/Time
EST
Wind Sea
Height
m
Swell Vis
km
Cloud Weather Temp
°C
Press
hPa
Rain since
9am
mm
Dir  Spd
kts
Gust
kts
Height
m
Period
s
Dir
23/11:30pm NNW 7 10 - - - - 10 Mostly clear - 11.7 1015.4 0.0
23/11:00pm NNW 6 8 - - - - 10 Mostly clear - 11.1 1015.5 0.0
23/10:30pm NNW 7 10 - - - - 10 Mostly clear - 11.3 1015.7 0.0
23/10:00pm NNW 7 11 - - - - 10 Mostly clear - 11.6 1015.7 0.0
23/09:30pm NNW 8 10 - - - - 10 Mostly clear - 12.0 1015.7 0.0
23/09:00pm NNW 8 11 - - - - 40 Mostly cloudy Fine 12.6 1015.8 0.0
23/08:30pm N 6 8 - - - - 10 Mostly clear - 11.5 1016.1 0.0
23/08:00pm N 6 8 - - - - 10 Mostly clear - 11.2 1016.2 0.0
23/07:30pm N 6 7 - - - - 10 Mostly clear - 11.5 1016.2 0.0
23/07:00pm NNW 6 8 - - - - 10 Mostly clear - 13.4 1016.4 0.0
23/06:30pm N 6 7 - - - - 10 Mostly clear - 11.9 1016.3 0.0
23/06:00pm N 7 10 - - - - 40 Mostly cloudy Fine 13.9 1016.4 0.0
23/05:30pm NNW 8 11 - - - - 10 Mostly clear - 13.5 1016.5 0.0
23/05:00pm NNW 6 8 - - - - 10 Mostly clear - 15.2 1016.5 0.0
23/04:30pm N 6 7 - - - - 10 Mostly clear - 14.6 1016.5 0.0
23/04:00pm NNW 6 7 - - - - 10 Mostly clear - 16.0 1016.7 0.0
23/03:30pm N 8 11 - - - - 10 Mostly clear - 16.3 1016.5 0.0
23/03:00pm NNW 7 10 - - - - 40 Mostly cloudy Fine 16.5 1016.8 0.0
23/02:30pm NW 11 16 - - - - 10 Mostly clear - 17.0 1017.0 0.0
23/02:00pm NNW 11 16 - - - - 10 Mostly clear - 17.4 1017.3 0.0
23/01:30pm NW 13 19 - - - - 10 Mostly clear - 17.4 1017.8 0.0
23/01:00pm NW 14 20 - - - - 10 Mostly clear - 17.4 1018.3 0.0
23/12:30pm NW 14 19 - - - - 10 Mostly clear - 16.8 1018.9 0.0
23/12:00pm NNW 12 16 - - - - 40 Mostly cloudy Fine 16.7 1019.4 0.0
23/11:30am NW 14 20 - - - - 10 Mostly clear - 16.5 1020.2 0.0
23/11:00am NNW 12 18 - - - - 10 Mostly clear - 15.9 1020.5 0.0
23/10:30am NNW 14 19 - - - - 10 Mostly clear - 16.3 1021.0 0.0
23/10:00am NNW 13 18 - - - - 10 Mostly clear - 15.2 1021.2 0.0
23/09:30am NNW 9 14 - - - - 10 Mostly clear - 13.9 1021.4 0.0
23/09:00am NNW 9 12 - - - - 40 Mostly cloudy Fine 12.7 1021.7 0.0
23/08:30am NNW 10 15 - - - - 10 Mostly clear - 11.7 1021.8 0.0
23/08:00am NNW 8 10 - - - - 10 Mostly clear - 11.2 1021.8 0.0
23/07:30am NNW 7 9 - - - - 10 Mostly clear - 10.6 1021.8 0.0
23/07:00am NNW 10 15 - - - - 10 Mostly clear - 10.7 1021.6 0.0
23/06:30am NNW 10 14 - - - - 10 Mostly clear - 10.5 1021.4 0.0
23/06:00am NNW 12 16 - - - - 40 Mostly cloudy Fine 10.6 1021.2 0.0
23/05:30am NNW 9 13 - - - - 10 Mostly clear - 10.0 1021.4 0.0
23/05:00am NNW 9 12 - - - - 10 Mostly clear - 10.2 1021.6 0.0
23/04:30am NW 8 9 - - - - 10 Mostly clear - 10.1 1021.7 0.0
23/04:00am NW 6 7 - - - - 10 Mostly clear - 10.0 1021.8 0.0
23/03:30am WNW 3 4 - - - - 10 Mostly clear - 9.6 1022.0 0.0
23/03:00am CALM 0 4 - - - - 40 Mostly cloudy Fine 10.9 1022.2 0.0
23/02:30am NNW 5 8 - - - - 10 Mostly clear - 11.4 1022.3 0.0
23/02:00am NNW 7 10 - - - - 10 Mostly clear - 11.4 1022.4 0.0
23/01:30am NNW 8 10 - - - - 10 Mostly clear - 11.5 1022.5 0.0
23/01:00am NNW 8 11 - - - - 10 Mostly clear - 11.5 1022.9 0.0
23/12:30am NNW 6 8 - - - - 10 Mostly clear - 11.4 1023.1 0.0
23/12:00am NNE 3 7 - - - - 40 Mostly cloudy Fine 8.2 1023.2 0.0
 
Date/Time
EST
Wind Sea
Height
m
Swell Vis
km
Cloud Weather Temp
°C
Press
hPa
Rain since
9am
mm
Dir  Spd
kts
Gust
kts
Height
m
Period
s
Dir
22/11:30pm SSE 3 5 - - - - 10 Mostly clear - 9.1 1023.5 0.0
22/11:00pm N 5 7 - - - - 10 Mostly clear - 10.0 1023.7 0.0
22/10:30pm WNW 4 8 - - - - 10 Mostly clear - 10.0 1024.0 0.0
22/10:00pm NNW 4 5 - - - - 10 Mostly clear - 10.4 1024.1 0.0
22/09:30pm WNW 4 6 - - - - 10 Mostly clear - 10.6 1024.2 0.0
22/09:00pm WNW 5 6 - - - - 40 Partly cloudy Fine 11.1 1024.0 0.0
22/08:30pm N 6 8 - - - - 10 Mostly clear - 12.3 1023.9 0.0
22/08:00pm N 6 8 - - - - 10 Mostly clear - 11.7 1023.9 0.0
22/07:30pm NNW 7 10 - - - - 10 Mostly clear - 12.5 1023.8 0.0
22/07:00pm NW 10 15 - - - - 10 Mostly clear - 14.2 1023.8 0.0

Other formats

Comma delimited format used in spreadsheet applications
http://www.bom.gov.au/fwo/IDT60701/IDT60701.94975.axf

JavaScript Object Notation format (JSON) in row-major order
http://www.bom.gov.au/fwo/IDT60701/IDT60701.94975.json

Data quality

Most of these data are generated automatically and are frequently updated. Quality checks on data are not normally performed. It is possible for incorrect values to appear. Refer to information at About Latest Weather Observations and please check the disclaimer before using these data.